Time;durP1;ratioP1;P1;durP2;ratioP2;P2;SDS_P1;SDS_P2;PMS_P1;PMS_P2;Temp;Humidity;BMP_temperature;BMP_pressure;BME280_temperature;BME280_humidity;BME280_pressure;Samples;Min_cycle;Max_cycle;Signal;HPM_P1;HPM_P2
2024/01/07 00:01:27;;;;;;;25.10;10.20;;;1.50;99.90;;;;;;5066527;28;20028;-76
2024/01/07 00:03:53;;;;;;;21.25;9.68;;;1.50;99.90;;;;;;5066044;28;20028;-76
2024/01/07 00:06:18;;;;;;;20.75;8.73;;;1.50;99.90;;;;;;5065782;28;20267;-76
2024/01/07 00:08:47;;;;;;;20.08;9.60;;;1.50;99.90;;;;;;5067031;28;20024;-76
2024/01/07 00:11:13;;;;;;;26.13;10.27;;;1.40;99.90;;;;;;5066519;28;20033;-76
2024/01/07 00:13:38;;;;;;;28.73;10.32;;;1.40;99.90;;;;;;5048152;28;20089;-76
2024/01/07 00:16:04;;;;;;;21.50;9.52;;;1.40;99.90;;;;;;5066353;28;20060;-77
2024/01/07 00:18:30;;;;;;;21.15;9.93;;;1.40;99.90;;;;;;5066241;28;20028;-77
2024/01/07 00:20:55;;;;;;;22.42;10.52;;;1.40;99.90;;;;;;5066357;28;20028;-76
2024/01/07 00:23:24;;;;;;;21.98;9.80;;;1.40;99.90;;;;;;5067162;28;20033;-76
2024/01/07 00:25:49;;;;;;;21.58;9.88;;;1.50;99.90;;;;;;5065807;28;20024;-76
2024/01/07 00:28:15;;;;;;;24.33;9.38;;;1.40;99.90;;;;;;5067494;28;20051;-76
2024/01/07 00:30:41;;;;;;;23.10;10.00;;;1.40;99.90;;;;;;5062263;28;20466;-76
2024/01/07 00:33:06;;;;;;;20.67;8.93;;;1.40;99.90;;;;;;5064172;28;20040;-76
2024/01/07 00:35:32;;;;;;;23.73;9.60;;;1.40;99.90;;;;;;5066144;28;20040;-76
2024/01/07 00:37:58;;;;;;;21.83;9.80;;;1.40;99.90;;;;;;5065422;28;20303;-76
2024/01/07 00:40:24;;;;;;;19.75;9.65;;;1.40;99.90;;;;;;5068050;28;20020;-76
2024/01/07 00:42:50;;;;;;;22.38;10.18;;;1.40;99.90;;;;;;5047236;28;20031;-76
2024/01/07 00:45:16;;;;;;;21.05;10.35;;;1.40;99.90;;;;;;5067409;28;20055;-76
2024/01/07 00:47:41;;;;;;;26.02;10.18;;;1.40;99.90;;;;;;5082001;22;20419;-76
2024/01/07 00:50:09;;;;;;;21.20;9.48;;;1.40;99.90;;;;;;5047959;28;20032;-76
2024/01/07 00:52:37;;;;;;;23.80;9.63;;;1.50;99.90;;;;;;5059108;28;20040;-76
2024/01/07 00:55:04;;;;;;;25.05;11.10;;;1.50;99.90;;;;;;5042894;28;20123;-77
2024/01/07 00:57:30;;;;;;;22.55;10.20;;;1.40;99.90;;;;;;5056847;28;20027;-76
2024/01/07 00:59:56;;;;;;;23.08;10.80;;;1.40;99.90;;;;;;5062273;28;20044;-76
2024/01/07 01:02:21;;;;;;;26.02;10.25;;;1.40;99.90;;;;;;5064093;28;20067;-76
2024/01/07 01:04:47;;;;;;;17.30;9.13;;;1.40;99.90;;;;;;5043607;28;20023;-76
2024/01/07 01:07:13;;;;;;;25.67;10.20;;;1.40;99.90;;;;;;5042665;28;20051;-76
2024/01/07 01:09:39;;;;;;;24.13;10.27;;;1.40;99.90;;;;;;5043532;28;20653;-75
2024/01/07 01:12:07;;;;;;;23.10;10.10;;;1.40;99.90;;;;;;5062140;28;20135;-75
2024/01/07 01:14:32;;;;;;;23.15;9.93;;;1.30;99.90;;;;;;5061185;28;20040;-75
2024/01/07 01:17:00;;;;;;;19.92;9.90;;;1.40;99.90;;;;;;5048332;28;20032;-75
2024/01/07 01:19:26;;;;;;;24.08;10.05;;;1.30;99.90;;;;;;5047150;28;20407;-75
2024/01/07 01:21:51;;;;;;;19.30;9.02;;;1.30;99.90;;;;;;5067019;28;20033;-75
2024/01/07 01:24:17;;;;;;;24.38;9.00;;;1.30;99.90;;;;;;5047283;28;20107;-75
2024/01/07 01:26:42;;;;;;;25.35;9.82;;;1.30;99.90;;;;;;5065880;28;20025;-75
2024/01/07 01:29:08;;;;;;;22.42;9.13;;;1.30;99.90;;;;;;5046626;28;20058;-75
2024/01/07 01:31:33;;;;;;;21.90;9.50;;;1.30;99.90;;;;;;5065077;28;20047;-75
2024/01/07 01:33:59;;;;;;;22.70;9.70;;;1.30;99.90;;;;;;5065002;28;20029;-75
2024/01/07 01:36:27;;;;;;;23.23;9.30;;;1.30;99.90;;;;;;5064390;28;20064;-75
2024/01/07 01:38:55;;;;;;;22.23;9.35;;;1.30;99.90;;;;;;5065083;28;20028;-75
2024/01/07 01:41:20;;;;;;;;;;;1.20;99.90;;;;;;5062124;28;20749;-75
2024/01/07 01:43:46;;;;;;;22.27;9.27;;;1.20;99.90;;;;;;5066882;28;19919;-75
2024/01/07 01:46:13;;;;;;;18.55;9.23;;;1.20;99.90;;;;;;5064550;28;20059;-75
2024/01/07 01:48:39;;;;;;;24.42;10.40;;;1.20;99.90;;;;;;5059641;28;20349;-75
2024/01/07 01:51:05;;;;;;;24.88;9.52;;;1.20;99.90;;;;;;5066597;28;20478;-75
2024/01/07 01:53:32;;;;;;;20.55;9.23;;;1.20;99.90;;;;;;5043301;28;20303;-75
2024/01/07 01:56:00;;;;;;;20.55;8.55;;;1.20;99.90;;;;;;5062797;28;20499;-75
2024/01/07 01:58:27;;;;;;;20.13;9.18;;;1.20;99.90;;;;;;5064439;28;20060;-75
2024/01/07 02:00:53;;;;;;;24.30;9.07;;;1.20;99.90;;;;;;5065496;28;20325;-75
2024/01/07 02:03:19;;;;;;;21.77;8.77;;;1.20;99.90;;;;;;5063981;28;20028;-75
2024/01/07 02:05:45;;;;;;;17.48;8.25;;;1.10;99.90;;;;;;5063392;28;20024;-75
2024/01/07 02:08:11;;;;;;;22.00;8.93;;;1.20;99.90;;;;;;5064436;28;20116;-75
2024/01/07 02:10:36;;;;;;;22.25;9.30;;;1.20;99.90;;;;;;5066242;28;20434;-75
2024/01/07 02:13:03;;;;;;;19.25;8.30;;;1.20;99.90;;;;;;5064433;28;20356;-75
2024/01/07 02:15:29;;;;;;;25.45;8.73;;;1.20;99.90;;;;;;5061273;28;20530;-75
2024/01/07 02:17:55;;;;;;;17.15;7.63;;;1.10;99.90;;;;;;5063790;28;20063;-75
2024/01/07 02:20:21;;;;;;;16.65;7.55;;;1.10;99.90;;;;;;5063625;28;20506;-75
2024/01/07 02:22:46;;;;;;;20.20;8.10;;;1.10;99.90;;;;;;5062583;28;20016;-75
2024/01/07 02:25:12;;;;;;;24.20;8.77;;;1.10;99.90;;;;;;5064693;28;20059;-75
2024/01/07 02:27:39;;;;;;;17.98;7.65;;;1.10;99.90;;;;;;5064187;28;20161;-75
2024/01/07 02:30:06;;;;;;;17.95;7.32;;;1.10;99.90;;;;;;5065347;28;20115;-75
2024/01/07 02:32:34;;;;;;;17.45;7.43;;;1.00;99.90;;;;;;5060360;28;20467;-75
2024/01/07 02:35:00;;;;;;;16.48;7.63;;;1.00;99.90;;;;;;5062579;28;20163;-75
2024/01/07 02:37:25;;;;;;;17.15;7.38;;;1.10;99.90;;;;;;5059080;28;20485;-75
2024/01/07 02:39:51;;;;;;;18.67;6.95;;;1.00;99.90;;;;;;5064229;28;20107;-75
2024/01/07 02:42:17;;;;;;;19.00;7.60;;;1.00;99.90;;;;;;5064499;28;20356;-75
2024/01/07 02:44:45;;;;;;;14.98;7.03;;;1.00;99.90;;;;;;5064131;28;20686;-75
2024/01/07 02:47:10;;;;;;;18.17;6.50;;;1.00;99.90;;;;;;5064277;28;20033;-75
2024/01/07 02:49:36;;;;;;;15.48;6.70;;;1.00;99.90;;;;;;5062231;28;20135;-75
2024/01/07 02:52:01;;;;;;;15.18;6.90;;;0.90;99.90;;;;;;5065857;28;20059;-75
2024/01/07 02:54:27;;;;;;;12.02;6.70;;;0.90;99.90;;;;;;5064786;28;20321;-75
2024/01/07 02:56:52;;;;;;;15.98;6.60;;;0.90;99.90;;;;;;5065013;28;20068;-75
2024/01/07 02:59:19;;;;;;;15.57;6.68;;;0.90;99.90;;;;;;5060203;28;20036;-75
2024/01/07 03:01:45;;;;;;;13.77;6.85;;;0.90;99.90;;;;;;5061887;28;20019;-75
2024/01/07 03:04:13;;;;;;;17.00;7.80;;;0.90;99.90;;;;;;5060557;28;20043;-75
2024/01/07 03:06:39;;;;;;;12.57;6.20;;;0.90;99.90;;;;;;5056170;28;20067;-75
2024/01/07 03:09:04;;;;;;;11.00;5.35;;;0.90;99.90;;;;;;5041683;28;20025;-75
2024/01/07 03:11:30;;;;;;;10.50;5.53;;;0.80;99.90;;;;;;5056603;28;20056;-75
2024/01/07 03:13:56;;;;;;;15.50;6.57;;;0.80;99.90;;;;;;5056372;28;20111;-75
2024/01/07 03:16:23;;;;;;;16.02;5.93;;;0.90;99.90;;;;;;5055846;28;20056;-75
2024/01/07 03:18:49;;;;;;;11.30;5.18;;;0.80;99.90;;;;;;5056198;28;20558;-75
2024/01/07 03:21:19;;;;;;;15.38;4.82;;;0.80;99.90;;;;;;5060190;28;20441;-75
2024/01/07 03:23:45;;;;;;;11.18;4.63;;;0.80;99.90;;;;;;5051911;28;20391;-75
2024/01/07 03:26:11;;;;;;;17.30;5.93;;;0.80;99.90;;;;;;5062662;28;20032;-75
2024/01/07 03:28:39;;;;;;;9.88;5.38;;;0.80;99.90;;;;;;5057558;28;20372;-75
2024/01/07 03:31:10;;;;;;;11.70;5.22;;;0.80;99.90;;;;;;5055025;28;20114;-75
2024/01/07 03:33:40;;;;;;;17.58;5.43;;;0.80;99.90;;;;;;5054994;28;20038;-75
2024/01/07 03:36:09;;;;;;;17.80;5.18;;;0.80;99.90;;;;;;5060509;28;20038;-75
2024/01/07 03:38:35;;;;;;;15.55;5.30;;;0.80;99.90;;;;;;5055103;28;20087;-75
2024/01/07 03:41:01;;;;;;;13.35;4.70;;;0.80;99.90;;;;;;5062204;28;20040;-75
2024/01/07 03:43:27;;;;;;;15.88;5.20;;;0.80;99.90;;;;;;5057736;28;20030;-75
2024/01/07 03:45:52;;;;;;;10.18;4.50;;;0.80;99.90;;;;;;5057083;28;20633;-75
2024/01/07 03:48:18;;;;;;;9.98;4.53;;;0.70;99.90;;;;;;5042447;28;20028;-75
2024/01/07 03:50:43;;;;;;;13.68;4.25;;;0.70;99.90;;;;;;5060559;28;20119;-75
2024/01/07 03:53:09;;;;;;;7.90;4.40;;;0.70;99.90;;;;;;5058469;28;20040;-75
2024/01/07 03:55:35;;;;;;;9.02;4.22;;;0.70;99.90;;;;;;5063807;28;20024;-75
2024/01/07 03:58:00;;;;;;;9.43;3.65;;;0.70;99.90;;;;;;5061654;28;20020;-75
2024/01/07 04:00:26;;;;;;;11.25;3.83;;;0.70;99.90;;;;;;5042116;28;20036;-76
2024/01/07 04:02:51;;;;;;;12.63;4.13;;;0.70;99.90;;;;;;5056353;28;20048;-75
2024/01/07 04:05:17;;;;;;;9.25;3.92;;;0.60;99.90;;;;;;5057659;28;20073;-75
2024/01/07 04:07:42;;;;;;;6.50;3.38;;;0.60;99.90;;;;;;5057566;28;20157;-75
2024/01/07 04:10:08;;;;;;;6.90;3.33;;;0.70;99.90;;;;;;5060514;28;20127;-75
2024/01/07 04:12:34;;;;;;;6.13;3.05;;;0.70;99.90;;;;;;5055868;28;20547;-75
2024/01/07 04:14:59;;;;;;;7.60;3.80;;;0.60;99.90;;;;;;5058492;28;20040;-75
2024/01/07 04:17:25;;;;;;;5.88;3.30;;;0.60;99.90;;;;;;5059002;28;20028;-75
2024/01/07 04:19:53;;;;;;;10.13;3.22;;;0.60;99.90;;;;;;5055591;28;20032;-74
2024/01/07 04:22:21;;;;;;;10.63;3.60;;;0.60;99.90;;;;;;5053884;28;20498;-75
2024/01/07 04:24:46;;;;;;;7.22;3.22;;;0.60;99.90;;;;;;5056508;28;20514;-75
2024/01/07 04:27:14;;;;;;;6.43;2.97;;;0.60;99.90;;;;;;5062388;28;20047;-76
2024/01/07 04:29:42;;;;;;;7.05;3.20;;;0.60;99.90;;;;;;5060984;28;20020;-75
2024/01/07 04:32:08;;;;;;;9.88;3.22;;;0.60;99.90;;;;;;5059187;28;20037;-75
2024/01/07 04:34:33;;;;;;;6.40;3.33;;;0.60;99.90;;;;;;5040531;28;20024;-75
2024/01/07 04:36:59;;;;;;;9.43;3.00;;;0.60;99.90;;;;;;5058590;28;20093;-75
2024/01/07 04:39:24;;;;;;;11.77;3.45;;;0.60;99.90;;;;;;5062056;28;20517;-75
2024/01/07 04:41:52;;;;;;;8.38;3.72;;;0.60;99.90;;;;;;5061916;28;20017;-75
2024/01/07 04:44:18;;;;;;;5.60;2.88;;;0.60;99.90;;;;;;5062732;28;20021;-75
2024/01/07 04:46:44;;;;;;;5.97;2.72;;;0.60;99.90;;;;;;5062656;28;20062;-75
2024/01/07 04:49:09;;;;;;;5.70;2.50;;;0.60;99.90;;;;;;5062126;28;20094;-75
2024/01/07 04:51:37;;;;;;;8.57;3.50;;;0.60;99.90;;;;;;5065916;28;20036;-75
2024/01/07 04:54:05;;;;;;;6.90;2.83;;;0.60;99.90;;;;;;5068329;28;20496;-75
2024/01/07 04:56:32;;;;;;;6.68;2.78;;;0.60;99.90;;;;;;5066681;28;20033;-75
2024/01/07 04:58:57;;;;;;;6.85;3.08;;;0.50;99.90;;;;;;5065077;28;20032;-75
2024/01/07 05:01:23;;;;;;;6.70;3.00;;;0.60;99.90;;;;;;5067289;28;20017;-76
2024/01/07 05:03:49;;;;;;;7.35;3.05;;;0.50;99.90;;;;;;5067251;28;20108;-75
2024/01/07 05:06:14;;;;;;;8.82;3.50;;;0.50;99.90;;;;;;5064012;28;20165;-75
2024/01/07 05:08:41;;;;;;;7.32;2.47;;;0.50;99.90;;;;;;5062400;28;20471;-75
2024/01/07 05:11:07;;;;;;;9.23;3.45;;;0.50;99.90;;;;;;5065906;28;20032;-75
2024/01/07 05:13:33;;;;;;;5.10;2.55;;;0.40;99.90;;;;;;5066105;28;20097;-74
2024/01/07 05:15:58;;;;;;;10.73;3.10;;;0.40;99.90;;;;;;5065950;28;20032;-75
2024/01/07 05:18:24;;;;;;;6.15;2.72;;;0.40;99.90;;;;;;5047606;28;20036;-75
2024/01/07 05:20:51;;;;;;;6.57;3.03;;;0.40;99.90;;;;;;5066197;28;20029;-74
2024/01/07 05:23:17;;;;;;;8.02;2.95;;;0.40;99.90;;;;;;5047480;28;20048;-75
2024/01/07 05:25:45;;;;;;;10.77;3.00;;;0.40;99.90;;;;;;5065367;28;20071;-75
2024/01/07 05:28:14;;;;;;;6.68;3.28;;;0.40;99.90;;;;;;5064032;28;20450;-75
2024/01/07 05:30:44;;;;;;;8.60;3.20;;;0.40;99.90;;;;;;5062527;28;20039;-75
2024/01/07 05:33:10;;;;;;;6.53;3.08;;;0.40;99.90;;;;;;5064122;28;20082;-75
2024/01/07 05:35:35;;;;;;;6.55;2.72;;;0.40;99.90;;;;;;5063016;28;20024;-75
2024/01/07 05:38:01;;;;;;;8.25;2.60;;;0.40;99.90;;;;;;5062277;28;20135;-75
2024/01/07 05:40:29;;;;;;;9.48;3.33;;;0.30;99.90;;;;;;5064071;28;20082;-75
2024/01/07 05:42:54;;;;;;;4.25;2.33;;;0.30;99.90;;;;;;5064868;28;20082;-75
2024/01/07 05:45:20;;;;;;;8.73;3.38;;;0.30;99.90;;;;;;5064260;28;20610;-74
2024/01/07 05:47:45;;;;;;;4.72;2.53;;;0.30;99.90;;;;;;5061899;28;21545;-75
2024/01/07 05:50:11;;;;;;;8.30;3.03;;;0.30;99.90;;;;;;5065751;28;20297;-74
2024/01/07 05:52:36;;;;;;;5.63;3.05;;;0.40;99.90;;;;;;5069385;28;20514;-75
2024/01/07 05:55:02;;;;;;;5.78;2.65;;;0.40;99.90;;;;;;5063986;28;20036;-75
2024/01/07 05:57:28;;;;;;;5.45;2.78;;;0.40;99.90;;;;;;5067283;28;20577;-74
2024/01/07 05:59:54;;;;;;;5.95;2.63;;;0.30;99.90;;;;;;5063711;28;20398;-74
2024/01/07 06:02:21;;;;;;;6.55;2.60;;;0.30;99.90;;;;;;5064126;28;20024;-75
2024/01/07 06:04:46;;;;;;;12.23;3.20;;;0.30;99.90;;;;;;5063914;28;20083;-75
2024/01/07 06:07:12;;;;;;;4.82;2.40;;;0.30;99.90;;;;;;5063948;28;20040;-74
2024/01/07 06:09:37;;;;;;;6.65;2.67;;;0.30;99.90;;;;;;5064379;28;22193;-74
2024/01/07 06:12:04;;;;;;;5.57;3.00;;;0.20;99.90;;;;;;5063783;28;20417;-75
2024/01/07 06:14:29;;;;;;;6.75;2.97;;;0.20;99.90;;;;;;5063121;28;20020;-74
2024/01/07 06:16:57;;;;;;;6.60;2.42;;;0.20;99.90;;;;;;5063393;28;20556;-74
2024/01/07 06:19:23;;;;;;;5.25;2.50;;;0.10;99.90;;;;;;5069729;28;20471;-74
2024/01/07 06:21:48;;;;;;;5.60;2.03;;;0.10;99.90;;;;;;5064059;28;20033;-74
2024/01/07 06:24:14;;;;;;;6.03;2.85;;;0.10;99.90;;;;;;5064501;28;20483;-74
2024/01/07 06:26:40;;;;;;;5.18;2.40;;;0.00;99.90;;;;;;5065071;28;20016;-75
2024/01/07 06:29:06;;;;;;;4.95;2.40;;;0.00;99.90;;;;;;5066126;28;20028;-75
2024/01/07 06:31:31;;;;;;;6.32;2.00;;;0.00;99.90;;;;;;5065143;28;20028;-74
2024/01/07 06:33:57;;;;;;;6.07;2.45;;;-0.10;99.90;;;;;;5063455;28;20024;-75
2024/01/07 06:36:25;;;;;;;4.80;2.47;;;-0.10;99.90;;;;;;5058793;28;20032;-75
2024/01/07 06:38:50;;;;;;;;;;;-0.10;99.90;;;;;;5058236;28;20036;-75
2024/01/07 06:41:16;;;;;;;3.42;2.00;;;-0.10;99.90;;;;;;5067136;28;19911;-75
2024/01/07 06:43:44;;;;;;;4.80;2.35;;;-0.10;99.90;;;;;;5065983;28;20662;-75
2024/01/07 06:46:10;;;;;;;9.50;2.50;;;-0.10;99.90;;;;;;5068699;22;20099;-75
2024/01/07 06:48:38;;;;;;;6.72;2.67;;;-0.20;99.90;;;;;;5043412;28;20071;-75
2024/01/07 06:51:04;;;;;;;6.75;2.65;;;-0.20;99.90;;;;;;5045578;28;20028;-75
2024/01/07 06:53:29;;;;;;;6.22;2.50;;;-0.20;99.90;;;;;;5063265;28;20036;-75
2024/01/07 06:55:55;;;;;;;6.07;2.70;;;-0.30;99.90;;;;;;5044336;28;20017;-76
2024/01/07 06:58:20;;;;;;;6.35;2.38;;;-0.30;99.90;;;;;;5061364;28;20028;-76
2024/01/07 07:00:46;;;;;;;6.13;2.63;;;-0.30;99.90;;;;;;5063920;28;20115;-76
2024/01/07 07:03:13;;;;;;;6.55;3.40;;;-0.40;99.90;;;;;;5064457;28;20044;-77
2024/01/07 07:05:39;;;;;;;11.40;3.20;;;-0.40;99.90;;;;;;5045091;28;20284;-76
2024/01/07 07:08:05;;;;;;;9.00;3.38;;;-0.30;99.90;;;;;;5063308;28;20032;-76
2024/01/07 07:10:31;;;;;;;11.65;3.55;;;-0.40;99.90;;;;;;5063118;28;20747;-76
2024/01/07 07:12:57;;;;;;;10.02;3.65;;;-0.40;99.90;;;;;;5060766;28;20052;-75
2024/01/07 07:15:28;;;;;;;12.63;4.35;;;-0.40;99.90;;;;;;5064724;28;20570;-75
2024/01/07 07:17:54;;;;;;;8.95;3.75;;;-0.40;99.90;;;;;;5067532;28;20043;-75
2024/01/07 07:20:19;;;;;;;7.38;4.65;;;-0.50;99.90;;;;;;5062325;28;20037;-75
2024/01/07 07:22:50;;;;;;;9.25;4.20;;;-0.50;99.90;;;;;;5065532;28;20025;-76
2024/01/07 07:25:15;;;;;;;17.20;3.60;;;-0.50;99.90;;;;;;5065262;28;20025;-76
2024/01/07 07:27:41;;;;;;;11.60;3.88;;;-0.40;99.90;;;;;;5069997;28;20028;-76
2024/01/07 07:30:07;;;;;;;7.70;3.28;;;-0.40;99.90;;;;;;5067239;28;20028;-76
2024/01/07 07:32:33;;;;;;;7.13;3.17;;;-0.50;99.90;;;;;;5068785;28;20029;-76
2024/01/07 07:34:59;;;;;;;6.07;3.08;;;-0.50;99.90;;;;;;5069083;28;20043;-77
2024/01/07 07:37:25;;;;;;;6.75;2.92;;;-0.40;99.90;;;;;;5067309;28;20031;-77
2024/01/07 07:39:50;;;;;;;8.18;3.25;;;-0.40;99.90;;;;;;5046311;28;20017;-76
2024/01/07 07:42:16;;;;;;;3.78;2.55;;;-0.40;99.90;;;;;;5069243;28;20103;-77
2024/01/07 07:44:44;;;;;;;4.25;2.72;;;-0.30;99.90;;;;;;5063781;28;20039;-77
2024/01/07 07:47:11;;;;;;;;;;;-0.40;99.90;;;;;;5061040;28;20036;-77
2024/01/07 07:49:39;;;;;;;9.50;3.50;;;-0.40;99.90;;;;;;5064228;28;19912;-77
2024/01/07 07:52:08;;;;;;;8.10;2.97;;;-0.40;99.90;;;;;;5058214;28;20112;-77
2024/01/07 07:54:35;;;;;;;5.40;2.80;;;-0.40;99.90;;;;;;5062810;28;20849;-77
2024/01/07 07:57:00;;;;;;;5.70;3.00;;;-0.40;99.90;;;;;;5060546;28;20032;-77
2024/01/07 07:59:26;;;;;;;5.90;2.72;;;-0.30;99.90;;;;;;5064498;28;20032;-77
2024/01/07 08:01:52;;;;;;;6.43;3.08;;;-0.30;99.90;;;;;;5048559;28;20161;-77
2024/01/07 08:04:20;;;;;;;8.23;3.40;;;-0.30;99.90;;;;;;5033879;28;20115;-76
2024/01/07 08:06:50;;;;;;;4.85;2.90;;;-0.30;99.90;;;;;;5068223;28;20024;-78
2024/01/07 08:09:18;;;;;;;7.05;3.38;;;-0.30;99.90;;;;;;5059185;28;20047;-77
2024/01/07 08:11:44;;;;;;;5.63;2.80;;;-0.10;99.90;;;;;;5064034;28;20055;-77
2024/01/07 08:14:09;;;;;;;6.68;2.65;;;-0.20;99.90;;;;;;5066673;28;20476;-77
2024/01/07 08:16:35;;;;;;;7.32;3.30;;;-0.20;99.90;;;;;;5047964;28;20027;-77
2024/01/07 08:19:03;;;;;;;4.10;2.85;;;-0.20;99.90;;;;;;5061838;28;20032;-77
2024/01/07 08:21:28;;;;;;;;;;;-0.20;99.90;;;;;;5060971;28;20494;-76
2024/01/07 08:23:54;;;;;;;4.80;2.47;;;-0.20;99.90;;;;;;5064140;28;19915;-77
2024/01/07 08:26:20;;;;;;;5.75;3.05;;;-0.20;99.90;;;;;;5064334;28;20259;-77
2024/01/07 08:28:45;;;;;;;7.20;2.83;;;-0.10;99.90;;;;;;5043575;28;20028;-77
2024/01/07 08:31:13;;;;;;;5.82;2.60;;;-0.10;99.90;;;;;;5060162;28;20032;-77
2024/01/07 08:33:39;;;;;;;;;;;-0.10;99.90;;;;;;5061099;28;20033;-77
2024/01/07 08:36:05;;;;;;;6.28;2.80;;;-0.10;99.90;;;;;;5058448;28;20256;-76
2024/01/07 08:38:30;;;;;;;6.13;2.88;;;-0.10;99.90;;;;;;5063787;28;20023;-77
2024/01/07 08:40:56;;;;;;;6.78;2.88;;;0.00;99.90;;;;;;5059882;28;20050;-77
2024/01/07 08:43:22;;;;;;;5.05;2.83;;;0.00;99.90;;;;;;5059818;28;20024;-76
2024/01/07 08:45:47;;;;;;;5.90;2.88;;;0.00;99.90;;;;;;5062467;28;20033;-77
2024/01/07 08:48:13;;;;;;;3.67;2.20;;;0.00;99.90;;;;;;5066692;28;20037;-77
2024/01/07 08:50:38;;;;;;;4.93;2.42;;;0.30;99.90;;;;;;5041317;28;20121;-77
2024/01/07 08:53:04;;;;;;;4.97;2.55;;;0.10;99.90;;;;;;5060535;28;20493;-77
2024/01/07 08:55:30;;;;;;;4.72;2.95;;;0.10;99.90;;;;;;5063857;28;20025;-77
2024/01/07 08:57:59;;;;;;;5.03;2.80;;;0.10;99.90;;;;;;5060958;28;20066;-76
2024/01/07 09:00:31;;;;;;;3.55;2.10;;;0.10;99.90;;;;;;5062399;28;20032;-76
2024/01/07 09:02:57;;;;;;;6.05;2.38;;;0.20;99.90;;;;;;5064258;28;20136;-77
2024/01/07 09:05:24;;;;;;;6.75;3.03;;;0.10;99.90;;;;;;5065553;28;20017;-77
2024/01/07 09:07:50;;;;;;;3.73;2.47;;;0.20;99.90;;;;;;5061516;28;20390;-77
2024/01/07 09:10:18;;;;;;;7.03;2.47;;;0.20;99.90;;;;;;5064504;28;20029;-77
2024/01/07 09:12:44;;;;;;;7.35;3.00;;;0.10;99.90;;;;;;5061998;28;20077;-76
2024/01/07 09:15:10;;;;;;;4.40;2.60;;;0.20;99.90;;;;;;5064755;28;20052;-77
2024/01/07 09:17:38;;;;;;;3.97;2.33;;;0.20;99.90;;;;;;5062527;28;20036;-76
2024/01/07 09:20:08;;;;;;;5.25;2.28;;;0.20;99.90;;;;;;5061589;28;20036;-77
2024/01/07 09:22:34;;;;;;;4.88;2.47;;;0.20;99.90;;;;;;5060962;28;20055;-77
2024/01/07 09:25:05;;;;;;;7.85;2.55;;;0.30;99.90;;;;;;5044768;28;20024;-77
2024/01/07 09:27:30;;;;;;;4.75;2.15;;;0.30;99.90;;;;;;5060151;28;20563;-76
2024/01/07 09:29:56;;;;;;;4.63;2.70;;;0.30;99.90;;;;;;5054949;28;20037;-76
2024/01/07 09:32:22;;;;;;;5.05;2.13;;;0.30;99.90;;;;;;5059720;28;20040;-76
2024/01/07 09:34:47;;;;;;;5.32;1.90;;;0.30;99.90;;;;;;5057123;28;20029;-76
2024/01/07 09:37:16;;;;;;;5.07;2.55;;;0.30;99.90;;;;;;5059207;28;20479;-77
2024/01/07 09:39:42;;;;;;;5.63;2.40;;;0.40;99.90;;;;;;5065568;28;20130;-76
2024/01/07 09:42:17;;;;;;;3.72;2.10;;;0.40;99.90;;;;;;5048788;28;20116;-76
2024/01/07 09:44:43;;;;;;;5.57;2.30;;;0.40;99.90;;;;;;5061476;28;20150;-76
2024/01/07 09:47:14;;;;;;;6.43;1.95;;;0.40;99.90;;;;;;5065309;28;20548;-76
2024/01/07 09:49:46;;;;;;;5.70;2.30;;;0.40;99.90;;;;;;5065030;28;20120;-77
2024/01/07 09:52:14;;;;;;;7.57;2.53;;;0.50;99.90;;;;;;5062809;28;20036;-77
2024/01/07 09:54:40;;;;;;;4.28;2.03;;;0.50;99.90;;;;;;5063123;28;20029;-77
2024/01/07 09:57:07;;;;;;;4.90;2.33;;;0.50;99.90;;;;;;5066673;28;20629;-77
2024/01/07 09:59:35;;;;;;;5.43;2.65;;;0.50;99.90;;;;;;5049973;28;20032;-76
2024/01/07 10:02:01;;;;;;;3.97;2.13;;;0.60;99.90;;;;;;5050813;28;20043;-77
2024/01/07 10:04:30;;;;;;;3.92;1.90;;;0.60;99.90;;;;;;5055369;28;20029;-77
2024/01/07 10:06:56;;;;;;;5.55;2.33;;;0.60;99.90;;;;;;5067566;28;20025;-77
2024/01/07 10:09:23;;;;;;;5.55;2.40;;;0.60;99.90;;;;;;5068341;28;20028;-76
2024/01/07 10:11:49;;;;;;;7.60;2.03;;;0.70;99.90;;;;;;5067040;28;20024;-76
2024/01/07 10:14:17;;;;;;;8.40;2.55;;;0.70;99.90;;;;;;5065164;28;20126;-76
2024/01/07 10:16:43;;;;;;;3.67;2.20;;;0.70;99.90;;;;;;5049566;28;20111;-76
2024/01/07 10:19:09;;;;;;;5.25;2.35;;;0.70;99.90;;;;;;5065215;28;20660;-77
2024/01/07 10:21:34;;;;;;;4.63;2.47;;;0.70;99.90;;;;;;5063390;28;20017;-76
2024/01/07 10:24:13;;;;;;;6.70;2.67;;;0.70;99.90;;;;;;5063170;28;20077;-75
2024/01/07 10:26:40;;;;;;;5.85;2.55;;;0.70;99.90;;;;;;5059610;28;20157;-76
2024/01/07 10:29:07;;;;;;;4.65;2.40;;;0.70;99.90;;;;;;5066275;28;20036;-76
2024/01/07 10:31:33;;;;;;;6.35;2.70;;;0.80;99.90;;;;;;5058520;28;20080;-76
2024/01/07 10:34:01;;;;;;;3.88;2.35;;;0.70;99.90;;;;;;5067608;28;20066;-75
2024/01/07 10:36:27;;;;;;;;;;;0.70;99.90;;;;;;5059420;28;20041;-75
2024/01/07 10:38:54;;;;;;;6.10;2.88;;;0.80;99.90;;;;;;5062207;28;19909;-76
2024/01/07 10:41:20;;;;;;;7.70;2.45;;;0.80;99.90;;;;;;5061200;28;20052;-76
2024/01/07 10:43:47;;;;;;;7.28;3.67;;;0.80;99.90;;;;;;5062116;28;20056;-76
2024/01/07 10:46:14;;;;;;;4.53;2.97;;;0.80;99.90;;;;;;5061575;28;20052;-75
2024/01/07 10:48:50;;;;;;;3.33;2.40;;;0.80;99.90;;;;;;5064788;28;20036;-75
2024/01/07 10:51:16;;;;;;;7.75;2.22;;;0.90;99.90;;;;;;5064715;28;20474;-76
2024/01/07 10:53:47;;;;;;;4.45;2.47;;;0.80;99.90;;;;;;5058358;28;20103;-76
2024/01/07 10:56:15;;;;;;;5.47;2.97;;;0.80;99.90;;;;;;5064026;28;20127;-76
2024/01/07 10:58:41;;;;;;;;;;;0.90;99.90;;;;;;5064318;28;20414;-76
2024/01/07 11:01:07;;;;;;;7.05;2.70;;;0.90;99.90;;;;;;5039846;28;19946;-76
2024/01/07 11:03:41;;;;;;;4.68;2.63;;;0.90;99.90;;;;;;5061162;28;20071;-76
2024/01/07 11:06:35;;;;;;;5.15;2.70;;;0.90;99.90;;;;;;5058556;28;20028;-76
2024/01/07 11:09:37;;;;;;;4.55;2.42;;;0.90;99.90;;;;;;5058881;28;20028;-76
2024/01/07 11:12:04;;;;;;;13.00;3.05;;;1.00;99.90;;;;;;5022464;28;20639;-76
2024/01/07 11:14:52;;;;;;;7.17;2.83;;;1.00;99.90;;;;;;5061089;28;20056;-76
2024/01/07 11:17:37;;;;;;;6.40;2.17;;;1.00;99.90;;;;;;5046310;28;20232;-77
2024/01/07 11:20:22;;;;;;;7.13;2.60;;;1.00;99.90;;;;;;5064225;28;20450;-77
2024/01/07 11:22:50;;;;;;;6.35;2.85;;;1.10;99.90;;;;;;5067747;28;20021;-76
2024/01/07 11:25:32;;;;;;;3.67;2.38;;;1.10;99.90;;;;;;5064137;28;20032;-76
2024/01/07 11:28:00;;;;;;;6.28;2.92;;;1.10;99.90;;;;;;5060080;28;20037;-76
2024/01/07 11:30:26;;;;;;;5.78;3.10;;;1.10;99.90;;;;;;5065079;28;20025;-76
2024/01/07 11:33:00;;;;;;;5.45;2.40;;;1.10;99.90;;;;;;5043236;28;20032;-76
2024/01/07 11:35:55;;;;;;;5.38;2.47;;;1.10;99.90;;;;;;5048714;28;20079;-76
2024/01/07 11:38:23;;;;;;;6.53;3.03;;;1.10;99.90;;;;;;5063035;28;20021;-78
2024/01/07 11:40:50;;;;;;;5.75;2.45;;;1.20;99.90;;;;;;5064744;28;20059;-76
2024/01/07 11:43:16;;;;;;;7.68;3.35;;;1.20;99.90;;;;;;5065424;28;20021;-76
2024/01/07 11:45:43;;;;;;;6.65;3.13;;;1.20;99.90;;;;;;5057936;28;20091;-76
2024/01/07 11:48:11;;;;;;;7.50;2.85;;;1.20;99.90;;;;;;5060028;28;20028;-75
2024/01/07 11:50:37;;;;;;;;;;;1.20;99.90;;;;;;5058929;28;20040;-74
2024/01/07 11:53:02;;;;;;;7.35;3.10;;;1.20;99.90;;;;;;5059444;28;19913;-75
2024/01/07 11:55:32;;;;;;;10.30;2.70;;;1.20;99.90;;;;;;5064919;28;20536;-77
2024/01/07 11:58:03;;;;;;;6.30;2.50;;;1.20;99.90;;;;;;5066486;28;20067;-76
2024/01/07 12:00:31;;;;;;;8.57;3.20;;;1.10;99.90;;;;;;5060333;28;20028;-76
2024/01/07 12:02:59;;;;;;;4.57;2.47;;;1.20;99.90;;;;;;5046832;28;20025;-77
2024/01/07 12:05:24;;;;;;;5.80;2.75;;;1.20;99.90;;;;;;5047086;28;20029;-77
2024/01/07 12:07:50;;;;;;;5.65;3.30;;;1.20;99.90;;;;;;5046400;28;20360;-77
2024/01/07 12:10:17;;;;;;;8.65;3.45;;;1.30;99.90;;;;;;5060756;28;20087;-78
2024/01/07 12:12:43;;;;;;;5.68;2.45;;;1.30;99.90;;;;;;5060535;28;20031;-76
2024/01/07 12:15:11;;;;;;;8.70;3.10;;;1.30;99.90;;;;;;5048586;28;20037;-76
2024/01/07 12:17:39;;;;;;;6.18;3.05;;;1.40;99.90;;;;;;5066834;28;20423;-76
2024/01/07 12:20:06;;;;;;;9.50;3.78;;;1.40;99.90;;;;;;5046490;28;20033;-76
2024/01/07 12:22:32;;;;;;;10.75;4.40;;;1.40;99.90;;;;;;5042183;28;20033;-76
2024/01/07 12:25:03;;;;;;;6.85;3.55;;;1.50;99.90;;;;;;5058027;28;20638;-76
2024/01/07 12:27:31;;;;;;;7.65;3.72;;;1.40;99.90;;;;;;5062275;28;20048;-75
2024/01/07 12:29:58;;;;;;;10.15;3.90;;;1.50;99.90;;;;;;5047733;28;20036;-76
2024/01/07 12:32:26;;;;;;;11.13;4.38;;;1.50;99.90;;;;;;5048124;28;20456;-76
2024/01/07 12:34:54;;;;;;;5.25;2.65;;;1.50;99.90;;;;;;5065982;28;20474;-77
2024/01/07 12:37:20;;;;;;;;;;;1.50;99.90;;;;;;5048638;28;20048;-76
2024/01/07 12:39:45;;;;;;;6.63;3.17;;;1.50;99.90;;;;;;5066511;28;19920;-76
2024/01/07 12:42:11;;;;;;;7.82;3.17;;;1.50;99.90;;;;;;5049025;28;20031;-75
2024/01/07 12:44:36;;;;;;;7.78;2.85;;;1.60;99.90;;;;;;5049088;28;20028;-75
2024/01/07 12:47:03;;;;;;;8.75;3.83;;;1.60;99.90;;;;;;5036095;23;20103;-75
2024/01/07 12:49:29;;;;;;;4.40;2.65;;;1.60;99.90;;;;;;5026990;28;20695;-75
2024/01/07 12:51:54;;;;;;;6.15;2.90;;;1.60;99.90;;;;;;5026326;28;20037;-75